createdAt,value
2022-10-09T00:00:49.617Z,86.12
2022-10-09T00:01:49.805Z,86.17
2022-10-09T00:02:50.334Z,86.23
2022-10-09T00:03:50.033Z,86.29
2022-10-09T00:04:50.190Z,86.40
2022-10-09T00:05:50.272Z,86.51
2022-10-09T00:06:50.442Z,86.58
2022-10-09T00:07:50.531Z,86.61
2022-10-09T00:08:50.663Z,86.57
2022-10-09T00:09:50.793Z,86.56
2022-10-09T00:10:51.053Z,86.61
2022-10-09T00:11:51.076Z,86.61
2022-10-09T00:12:51.478Z,86.60
2022-10-09T00:13:51.340Z,86.61
2022-10-09T00:14:51.468Z,86.62
2022-10-09T00:15:51.630Z,86.61
2022-10-09T00:16:51.742Z,86.60
2022-10-09T00:17:51.862Z,86.62
2022-10-09T00:18:51.991Z,86.62
2022-10-09T00:19:52.119Z,86.63
2022-10-09T00:20:52.278Z,86.62
2022-10-09T00:21:52.398Z,86.65
2022-10-09T00:22:52.498Z,86.64
2022-10-09T00:23:52.627Z,86.63
2022-10-09T00:24:52.771Z,86.60
2022-10-09T00:25:52.926Z,86.54
2022-10-09T00:26:53.036Z,86.49
2022-10-09T00:27:53.157Z,86.43
2022-10-09T00:28:53.330Z,86.37
2022-10-09T00:29:53.455Z,86.30
2022-10-09T00:30:53.718Z,86.25
2022-10-09T00:31:53.705Z,86.23
2022-10-09T00:32:53.853Z,86.25
2022-10-09T00:33:53.926Z,86.22
2022-10-09T00:34:54.072Z,86.20
2022-10-09T00:35:54.287Z,86.20
2022-10-09T00:36:54.341Z,86.15
2022-10-09T00:37:54.469Z,86.09
2022-10-09T00:38:54.607Z,86.09
2022-10-09T00:39:54.723Z,86.09
2022-10-09T00:40:54.887Z,86.12
2022-10-09T00:41:54.993Z,86.09
2022-10-09T00:42:55.122Z,86.06
2022-10-09T00:43:55.263Z,86.00
2022-10-09T00:44:55.389Z,86.00
2022-10-09T00:45:55.725Z,86.02
2022-10-09T00:46:55.681Z,86.04
2022-10-09T00:47:55.763Z,86.07
2022-10-09T00:48:55.909Z,86.06
2022-10-09T00:49:56.033Z,86.01
2022-10-09T00:50:56.300Z,85.94
2022-10-09T00:51:56.308Z,85.83
2022-10-09T00:52:56.400Z,85.78
2022-10-09T00:53:56.529Z,85.82
2022-10-09T00:54:56.670Z,85.90
2022-10-09T00:55:56.922Z,86.03
2022-10-09T00:56:56.969Z,86.10
2022-10-09T00:57:57.068Z,86.12
2022-10-09T00:58:57.212Z,86.09
2022-10-09T00:59:57.357Z,86.01
2022-10-09T01:00:57.585Z,85.99
2022-10-09T01:01:57.761Z,86.02
2022-10-09T01:02:57.746Z,86.08
2022-10-09T01:03:57.887Z,86.13
2022-10-09T01:04:58.015Z,86.14
2022-10-09T01:05:58.937Z,86.21
2022-10-09T01:06:58.278Z,86.27
2022-10-09T01:07:58.427Z,86.27
2022-10-09T01:08:58.568Z,86.26
2022-10-09T01:09:58.715Z,86.26
2022-10-09T01:10:58.795Z,86.25
2022-10-09T01:11:59.035Z,86.36
2022-10-09T01:12:59.073Z,86.53
2022-10-09T01:13:59.223Z,86.63
2022-10-09T01:14:59.352Z,86.73
2022-10-09T01:15:59.551Z,86.73
2022-10-09T01:16:59.729Z,86.73
2022-10-09T01:17:59.751Z,86.70
2022-10-09T01:18:59.883Z,86.70
2022-10-09T01:20:00.031Z,86.67
2022-10-09T01:21:00.122Z,86.64
2022-10-09T01:22:00.381Z,86.57
2022-10-09T01:23:00.391Z,86.46
2022-10-09T01:24:00.521Z,86.38
2022-10-09T01:25:00.650Z,86.26
2022-10-09T01:26:00.779Z,86.27
2022-10-09T01:27:00.952Z,86.22
2022-10-09T01:28:01.030Z,86.13
2022-10-09T01:29:01.158Z,86.05
2022-10-09T01:30:01.310Z,85.99
2022-10-09T01:31:01.506Z,86.00
2022-10-09T01:32:01.648Z,86.13
2022-10-09T01:33:01.706Z,86.36
2022-10-09T01:34:01.789Z,86.59
2022-10-09T01:35:01.916Z,86.80
2022-10-09T01:36:02.081Z,87.08
2022-10-09T01:37:02.248Z,87.21
2022-10-09T01:38:02.305Z,87.37
2022-10-09T01:39:02.456Z,87.42
2022-10-09T01:40:02.597Z,87.42
2022-10-09T01:41:02.665Z,87.40
2022-10-09T01:42:02.860Z,87.33
2022-10-09T01:43:02.955Z,87.27
2022-10-09T01:44:03.098Z,87.22
2022-10-09T01:45:03.245Z,87.21
2022-10-09T01:46:03.393Z,87.30
2022-10-09T01:47:04.144Z,87.35
2022-10-09T01:48:03.650Z,87.39
2022-10-09T01:49:03.792Z,87.39
2022-10-09T01:50:03.924Z,87.44
2022-10-09T01:51:04.072Z,87.52
2022-10-09T01:52:04.281Z,87.56
2022-10-09T01:53:04.342Z,87.61
2022-10-09T01:54:04.489Z,87.64
2022-10-09T01:55:04.632Z,87.72
2022-10-09T01:56:04.782Z,87.80
2022-10-09T01:57:04.994Z,87.87
2022-10-09T01:58:05.032Z,87.91
2022-10-09T01:59:05.171Z,87.88
2022-10-09T02:00:05.322Z,87.84
2022-10-09T02:01:05.407Z,87.80
2022-10-09T02:02:05.772Z,87.81
2022-10-09T02:03:05.716Z,87.82
2022-10-09T02:04:05.808Z,87.77
2022-10-09T02:05:05.941Z,87.79
2022-10-09T02:06:06.069Z,87.87
2022-10-09T02:07:06.260Z,88.01
2022-10-09T02:08:06.356Z,88.07
2022-10-09T02:09:06.438Z,88.06
2022-10-09T02:10:06.565Z,88.06
2022-10-09T02:11:06.719Z,88.06
2022-10-09T02:12:06.885Z,88.13
2022-10-09T02:13:06.968Z,88.18
2022-10-09T02:14:07.117Z,88.21
2022-10-09T02:15:07.247Z,88.24
2022-10-09T02:16:07.481Z,88.24
2022-10-09T02:17:07.705Z,88.26
2022-10-09T02:18:07.655Z,88.26
2022-10-09T02:19:07.788Z,88.27
2022-10-09T02:20:07.915Z,88.27
2022-10-09T02:21:08.046Z,88.24
2022-10-09T02:22:08.210Z,88.23
2022-10-09T02:23:08.329Z,88.20
2022-10-09T02:24:08.431Z,88.19
2022-10-09T02:25:08.571Z,88.18
2022-10-09T02:26:08.693Z,88.18
2022-10-09T02:27:08.963Z,88.23
2022-10-09T02:28:08.992Z,88.25
2022-10-09T02:29:09.104Z,88.23
2022-10-09T02:30:09.242Z,88.20
2022-10-09T02:31:09.439Z,88.16
2022-10-09T02:32:09.625Z,88.16
2022-10-09T02:33:09.659Z,88.12
2022-10-09T02:34:09.805Z,88.09
2022-10-09T02:35:09.938Z,88.04
2022-10-09T02:36:10.049Z,88.02
2022-10-09T02:37:10.241Z,87.99
2022-10-09T02:38:10.310Z,88.05
2022-10-09T02:39:10.447Z,88.12
2022-10-09T02:40:10.960Z,88.14
2022-10-09T02:41:10.720Z,88.22
2022-10-09T02:42:10.897Z,88.23
2022-10-09T02:43:10.971Z,88.25
2022-10-09T02:44:11.105Z,88.26
2022-10-09T02:45:11.251Z,88.25
2022-10-09T02:46:11.490Z,88.26
2022-10-09T02:47:11.563Z,88.31
2022-10-09T02:48:11.642Z,88.32
2022-10-09T02:49:11.765Z,88.35
2022-10-09T02:50:11.904Z,88.35
2022-10-09T02:51:12.058Z,88.29
2022-10-09T02:52:12.247Z,88.31
2022-10-09T02:53:12.279Z,88.34
2022-10-09T02:54:12.420Z,88.33
2022-10-09T02:55:12.556Z,88.38
2022-10-09T02:56:12.716Z,88.41
2022-10-09T02:57:12.885Z,88.49
2022-10-09T02:58:12.916Z,88.54
2022-10-09T02:59:13.064Z,88.55
2022-10-09T03:00:13.196Z,88.50
2022-10-09T03:01:13.338Z,88.42
2022-10-09T03:02:13.643Z,88.37
2022-10-09T03:03:13.626Z,88.38
2022-10-09T03:04:13.775Z,88.37
2022-10-09T03:05:13.898Z,88.43
2022-10-09T03:06:14.024Z,88.43
2022-10-09T03:07:14.235Z,88.38
2022-10-09T03:08:14.294Z,88.31
2022-10-09T03:09:14.430Z,88.26
2022-10-09T03:10:14.572Z,88.17
2022-10-09T03:11:14.703Z,88.11
2022-10-09T03:12:14.869Z,88.07
2022-10-09T03:13:14.951Z,88.04
2022-10-09T03:14:15.074Z,88.03
2022-10-09T03:15:15.213Z,88.01
2022-10-09T03:16:15.392Z,88.04
2022-10-09T03:17:15.531Z,88.06
2022-10-09T03:18:15.610Z,88.04
2022-10-09T03:19:15.735Z,88.04
2022-10-09T03:20:15.880Z,88.00
2022-10-09T03:21:16.009Z,87.97
2022-10-09T03:22:16.179Z,88.00
2022-10-09T03:23:16.277Z,88.06
2022-10-09T03:24:16.412Z,88.14
2022-10-09T03:25:16.561Z,88.20
2022-10-09T03:26:16.700Z,88.29
2022-10-09T03:27:16.892Z,88.34
2022-10-09T03:28:17.044Z,88.42
2022-10-09T03:29:17.118Z,88.51
2022-10-09T03:30:17.249Z,88.57
2022-10-09T03:31:33.346Z,88.65
2022-10-09T03:32:18.708Z,88.69
2022-10-09T03:33:17.637Z,88.67
2022-10-09T03:34:17.797Z,88.65
2022-10-09T03:35:17.918Z,88.66
2022-10-09T03:36:18.056Z,88.68
2022-10-09T03:37:18.247Z,88.66
2022-10-09T03:38:18.346Z,88.65
2022-10-09T03:39:18.479Z,88.69
2022-10-09T03:40:18.627Z,88.71
2022-10-09T03:41:18.735Z,88.71
2022-10-09T03:42:18.916Z,88.74
2022-10-09T03:43:18.985Z,88.71
2022-10-09T03:44:19.114Z,88.71
2022-10-09T03:45:19.268Z,88.69
2022-10-09T03:46:19.464Z,88.66
2022-10-09T03:47:19.648Z,88.66
2022-10-09T03:48:19.684Z,88.61
2022-10-09T03:49:19.803Z,88.66
2022-10-09T03:50:19.952Z,88.65
2022-10-09T03:51:20.097Z,88.67
2022-10-09T03:52:20.273Z,88.67
2022-10-09T03:53:20.351Z,88.67
2022-10-09T03:54:20.481Z,88.68
2022-10-09T03:55:20.621Z,88.69
2022-10-09T03:56:20.760Z,88.67
2022-10-09T03:57:21.045Z,88.72
2022-10-09T03:58:21.021Z,88.76
2022-10-09T03:59:21.153Z,88.76
2022-10-09T04:00:21.319Z,88.82
2022-10-09T04:01:21.490Z,88.81
2022-10-09T04:02:21.559Z,88.80
2022-10-09T04:03:21.619Z,88.80
2022-10-09T04:04:21.751Z,88.77
2022-10-09T04:05:21.891Z,88.75
2022-10-09T04:06:22.040Z,88.75
2022-10-09T04:07:22.228Z,88.70
2022-10-09T04:08:22.319Z,88.69
2022-10-09T04:09:22.455Z,88.66
2022-10-09T04:10:22.589Z,88.72
2022-10-09T04:11:22.739Z,88.70
2022-10-09T04:12:22.837Z,88.69
2022-10-09T04:13:22.980Z,88.73
2022-10-09T04:14:23.118Z,88.76
2022-10-09T04:15:23.246Z,88.81
2022-10-09T04:16:23.474Z,88.87
2022-10-09T04:17:23.526Z,88.90
2022-10-09T04:18:23.667Z,88.92
2022-10-09T04:19:23.814Z,88.94
2022-10-09T04:20:23.942Z,88.92
2022-10-09T04:21:24.188Z,88.94
2022-10-09T04:22:24.211Z,88.94
2022-10-09T04:23:24.329Z,88.98
2022-10-09T04:24:24.471Z,88.94
2022-10-09T04:25:24.585Z,88.94
2022-10-09T04:26:24.734Z,88.89
2022-10-09T04:27:24.832Z,88.84
2022-10-09T04:28:24.997Z,88.81
2022-10-09T04:29:25.110Z,88.81
2022-10-09T04:30:25.248Z,88.86
2022-10-09T04:31:25.466Z,88.86
2022-10-09T04:32:25.501Z,88.88
2022-10-09T04:33:25.642Z,88.84
2022-10-09T04:34:25.794Z,88.83
2022-10-09T04:35:25.932Z,88.81
2022-10-09T04:36:26.093Z,88.81
2022-10-09T04:37:26.205Z,88.81
2022-10-09T04:38:26.340Z,88.74
2022-10-09T04:39:26.472Z,88.71
2022-10-09T04:40:26.607Z,88.69
2022-10-09T04:41:26.759Z,88.73
2022-10-09T04:42:26.861Z,88.80
2022-10-09T04:43:27.003Z,88.84
2022-10-09T04:44:27.130Z,88.87
2022-10-09T04:45:27.304Z,88.86
2022-10-09T04:46:27.438Z,88.84
2022-10-09T04:47:27.527Z,88.76
2022-10-09T04:48:27.678Z,88.76
2022-10-09T04:49:27.818Z,88.76
2022-10-09T04:50:27.976Z,88.73
2022-10-09T04:51:28.106Z,88.72
2022-10-09T04:52:28.208Z,88.70
2022-10-09T04:53:28.356Z,88.79
2022-10-09T04:54:28.499Z,88.86
2022-10-09T04:55:28.639Z,88.87
2022-10-09T04:56:28.807Z,88.86
2022-10-09T04:57:28.905Z,88.84
2022-10-09T04:58:29.046Z,88.84
2022-10-09T04:59:29.183Z,88.82
2022-10-09T05:00:29.323Z,88.82
2022-10-09T05:01:33.005Z,88.82
2022-10-09T05:02:30.641Z,88.91
2022-10-09T05:03:29.704Z,88.90
2022-10-09T05:04:29.844Z,88.87
2022-10-09T05:05:29.975Z,88.88
2022-10-09T05:06:30.251Z,88.88
2022-10-09T05:07:30.252Z,88.87
2022-10-09T05:08:30.355Z,88.85
2022-10-09T05:09:30.465Z,88.84
2022-10-09T05:10:30.571Z,88.83
2022-10-09T05:11:30.891Z,88.75
2022-10-09T05:12:30.850Z,88.67
2022-10-09T05:13:30.950Z,88.62
2022-10-09T05:14:31.089Z,88.60
2022-10-09T05:15:31.249Z,88.56
2022-10-09T05:16:31.636Z,88.48
2022-10-09T05:17:31.578Z,88.40
2022-10-09T05:18:31.618Z,88.33
2022-10-09T05:19:31.747Z,88.26
2022-10-09T05:20:31.878Z,88.20
2022-10-09T05:21:32.150Z,88.16
2022-10-09T05:22:32.149Z,88.11
2022-10-09T05:23:32.280Z,88.10
2022-10-09T05:24:32.416Z,88.12
2022-10-09T05:25:32.576Z,88.14
2022-10-09T05:26:32.696Z,88.10
2022-10-09T05:27:32.798Z,88.12
2022-10-09T05:28:33.000Z,88.16
2022-10-09T05:29:33.106Z,88.19
2022-10-09T05:30:33.283Z,88.22
2022-10-09T05:31:33.396Z,88.20
2022-10-09T05:32:33.486Z,88.22
2022-10-09T05:33:33.625Z,88.18
2022-10-09T05:34:33.754Z,88.18
2022-10-09T05:35:33.913Z,88.16
2022-10-09T05:36:34.006Z,88.18
2022-10-09T05:37:34.197Z,88.16
2022-10-09T05:38:34.273Z,88.17
2022-10-09T05:39:34.426Z,88.17
2022-10-09T05:40:34.605Z,88.13
2022-10-09T05:41:34.695Z,88.13
2022-10-09T05:42:34.822Z,88.14
2022-10-09T05:43:34.951Z,88.12
2022-10-09T05:44:35.079Z,88.11
2022-10-09T05:45:35.300Z,88.08
2022-10-09T05:46:35.364Z,88.04
2022-10-09T05:47:35.491Z,88.00
2022-10-09T05:48:35.629Z,88.04
2022-10-09T05:49:35.782Z,88.12
2022-10-09T05:50:35.920Z,88.23
2022-10-09T05:51:36.050Z,88.27
2022-10-09T05:52:36.149Z,88.29
2022-10-09T05:53:36.269Z,88.32
2022-10-09T05:54:36.357Z,88.37
2022-10-09T05:55:36.517Z,88.38
2022-10-09T05:56:36.634Z,88.40
2022-10-09T05:57:36.778Z,88.40
2022-10-09T05:58:36.899Z,88.35
2022-10-09T05:59:37.071Z,88.33
2022-10-09T06:00:37.276Z,88.33
2022-10-09T06:01:37.515Z,88.29
2022-10-09T06:02:37.493Z,88.29
2022-10-09T06:03:37.552Z,88.28
2022-10-09T06:04:37.689Z,88.35
2022-10-09T06:05:37.886Z,88.40
2022-10-09T06:06:37.976Z,88.35
2022-10-09T06:07:38.118Z,88.23
2022-10-09T06:08:38.266Z,88.13
2022-10-09T06:09:38.405Z,88.07
2022-10-09T06:10:38.562Z,88.05
2022-10-09T06:11:38.675Z,88.01
2022-10-09T06:12:38.763Z,87.97
2022-10-09T06:13:38.924Z,87.98
2022-10-09T06:14:39.015Z,87.92
2022-10-09T06:15:39.166Z,87.88
2022-10-09T06:16:39.309Z,87.86
2022-10-09T06:17:39.392Z,87.90
2022-10-09T06:18:39.513Z,87.91
2022-10-09T06:19:39.654Z,87.88
2022-10-09T06:20:39.842Z,87.86
2022-10-09T06:21:39.963Z,87.87
2022-10-09T06:22:40.070Z,87.87
2022-10-09T06:23:40.190Z,87.88
2022-10-09T06:24:40.331Z,87.88
2022-10-09T06:25:40.510Z,87.85
2022-10-09T06:26:40.603Z,87.80
2022-10-09T06:27:40.739Z,87.77
2022-10-09T06:28:41.035Z,87.72
2022-10-09T06:29:41.101Z,87.68
2022-10-09T06:30:41.160Z,87.65
2022-10-09T06:31:41.298Z,87.66
2022-10-09T06:32:41.376Z,87.71
2022-10-09T06:33:41.470Z,87.69
2022-10-09T06:34:41.678Z,87.67
2022-10-09T06:35:41.697Z,87.64
2022-10-09T06:36:41.826Z,87.68
2022-10-09T06:37:41.967Z,87.65
2022-10-09T06:38:42.106Z,87.67
2022-10-09T06:39:42.319Z,87.66
2022-10-09T06:40:42.356Z,87.64
2022-10-09T06:41:42.485Z,87.66
2022-10-09T06:42:42.646Z,87.66
2022-10-09T06:43:42.754Z,87.68
2022-10-09T06:44:42.967Z,87.67
2022-10-09T06:45:43.072Z,87.68
2022-10-09T06:46:43.155Z,87.52
2022-10-09T06:47:43.324Z,87.37
2022-10-09T06:48:43.383Z,87.28
2022-10-09T06:49:43.584Z,87.07
2022-10-09T06:50:43.653Z,86.75
2022-10-09T06:51:43.792Z,86.42
2022-10-09T06:52:44.005Z,85.86
2022-10-09T06:53:44.043Z,85.46
2022-10-09T06:54:44.214Z,85.04
2022-10-09T06:55:44.314Z,84.49
2022-10-09T06:56:44.445Z,83.76
2022-10-09T06:57:44.601Z,83.28
2022-10-09T06:58:44.690Z,82.33
2022-10-09T06:59:44.861Z,81.78
2022-10-09T07:00:44.963Z,81.30
2022-10-09T07:01:45.162Z,80.78
2022-10-09T07:02:45.236Z,81.34
2022-10-09T07:03:45.316Z,81.09
2022-10-09T07:04:45.479Z,80.13
2022-10-09T07:05:45.568Z,79.73
2022-10-09T07:06:45.699Z,79.55
2022-10-09T07:07:45.852Z,79.21
2022-10-09T07:08:45.955Z,78.59
2022-10-09T07:09:46.137Z,77.94
2022-10-09T07:10:46.231Z,77.33
2022-10-09T07:11:46.370Z,76.98
2022-10-09T07:12:46.851Z,76.35
2022-10-09T07:13:46.647Z,75.27
2022-10-09T07:14:46.776Z,74.32
2022-10-09T07:15:46.950Z,74.17
2022-10-09T07:16:47.004Z,74.29
2022-10-09T07:17:47.108Z,74.47
2022-10-09T07:18:47.226Z,74.74
2022-10-09T07:19:47.399Z,74.56
2022-10-09T07:20:47.467Z,74.80
2022-10-09T07:21:47.618Z,74.74
2022-10-09T07:22:48.018Z,75.12
2022-10-09T07:23:47.847Z,74.80
2022-10-09T07:24:47.995Z,74.67
2022-10-09T07:25:48.132Z,74.39
2022-10-09T07:26:48.236Z,74.35
2022-10-09T07:27:48.327Z,74.50
2022-10-09T07:28:48.516Z,74.57
2022-10-09T07:29:48.623Z,74.36
2022-10-09T07:30:48.815Z,74.54
2022-10-09T07:31:48.878Z,75.20
2022-10-09T07:32:49.241Z,74.66
2022-10-09T07:33:49.160Z,74.69
2022-10-09T07:34:49.354Z,75.07
2022-10-09T07:35:49.446Z,74.79
2022-10-09T07:36:49.564Z,74.55
2022-10-09T07:37:49.665Z,74.61
2022-10-09T07:38:49.756Z,74.80
2022-10-09T07:39:49.949Z,75.12
2022-10-09T07:40:50.033Z,74.04
2022-10-09T07:41:50.201Z,73.82
2022-10-09T07:42:50.661Z,73.15
2022-10-09T07:43:50.444Z,73.57
2022-10-09T07:44:50.582Z,72.91
2022-10-09T07:45:50.730Z,72.23
2022-10-09T07:46:50.803Z,72.73
2022-10-09T07:47:50.922Z,72.23
2022-10-09T07:48:51.023Z,71.28
2022-10-09T07:49:51.162Z,71.36
2022-10-09T07:50:51.272Z,71.00
2022-10-09T07:51:51.370Z,72.22
2022-10-09T07:52:51.855Z,69.44
2022-10-09T07:53:51.642Z,68.84
2022-10-09T07:54:51.779Z,68.49
2022-10-09T07:55:51.885Z,68.74
2022-10-09T07:56:52.003Z,69.02
2022-10-09T07:57:52.129Z,68.70
2022-10-09T07:58:52.222Z,68.26
2022-10-09T07:59:52.381Z,67.73
2022-10-09T08:00:52.450Z,67.89
2022-10-09T08:01:52.570Z,68.10
2022-10-09T08:02:53.244Z,68.26
2022-10-09T08:03:52.757Z,67.38
2022-10-09T08:04:52.886Z,68.43
2022-10-09T08:05:52.970Z,67.95
2022-10-09T08:06:53.149Z,66.77
2022-10-09T08:07:53.249Z,67.79
2022-10-09T08:08:53.348Z,68.09
2022-10-09T08:09:53.620Z,67.99
2022-10-09T08:10:53.559Z,67.88
2022-10-09T08:11:53.659Z,67.15
2022-10-09T08:12:53.830Z,67.23
2022-10-09T08:13:53.941Z,67.32
2022-10-09T08:14:54.080Z,66.53
2022-10-09T08:15:54.268Z,66.26
2022-10-09T08:16:54.299Z,66.50
2022-10-09T08:17:54.462Z,66.78
2022-10-09T08:18:54.567Z,66.18
2022-10-09T08:19:54.706Z,65.54
2022-10-09T08:20:54.822Z,65.61
2022-10-09T08:21:54.929Z,64.53
2022-10-09T08:22:55.048Z,64.89
2022-10-09T08:23:55.371Z,65.39
2022-10-09T08:24:55.246Z,66.44
2022-10-09T08:25:55.397Z,65.95
2022-10-09T08:26:55.513Z,65.00
2022-10-09T08:27:55.642Z,65.14
2022-10-09T08:28:55.775Z,64.72
2022-10-09T08:29:55.876Z,65.15
2022-10-09T08:30:56.001Z,65.26
2022-10-09T08:31:56.105Z,66.48
2022-10-09T08:32:56.204Z,65.25
2022-10-09T08:33:56.375Z,63.73
2022-10-09T08:34:56.464Z,62.76
2022-10-09T08:35:56.578Z,62.01
2022-10-09T08:36:56.666Z,62.80
2022-10-09T08:37:56.785Z,64.14
2022-10-09T08:38:56.928Z,63.58
2022-10-09T08:39:57.037Z,62.61
2022-10-09T08:40:58.305Z,65.55
2022-10-09T08:41:57.276Z,63.48
2022-10-09T08:42:57.401Z,61.46
2022-10-09T08:43:57.524Z,61.37
2022-10-09T08:44:57.652Z,60.75
2022-10-09T08:45:57.835Z,60.64
2022-10-09T08:46:57.926Z,61.95
2022-10-09T08:47:58.042Z,61.76
2022-10-09T08:48:58.213Z,61.35
2022-10-09T08:49:58.274Z,62.17
2022-10-09T08:50:58.385Z,63.07
2022-10-09T08:51:58.496Z,61.99
2022-10-09T08:52:58.616Z,61.56
2022-10-09T08:53:58.816Z,61.63
2022-10-09T08:54:58.877Z,62.68
2022-10-09T08:55:58.975Z,61.53
2022-10-09T08:56:59.081Z,61.96
2022-10-09T08:57:59.192Z,61.38
2022-10-09T08:58:59.334Z,63.24
2022-10-09T08:59:59.385Z,61.73
2022-10-09T09:00:59.524Z,62.20
2022-10-09T09:01:59.742Z,62.25
2022-10-09T09:02:59.797Z,63.33
2022-10-09T09:03:59.904Z,62.39
2022-10-09T09:05:00.054Z,61.46
2022-10-09T09:06:00.117Z,62.60
2022-10-09T09:07:00.223Z,61.26
2022-10-09T09:08:00.343Z,59.75
2022-10-09T09:09:00.520Z,61.12
2022-10-09T09:10:00.579Z,60.95
2022-10-09T09:11:00.685Z,60.58
2022-10-09T09:12:00.795Z,60.85
2022-10-09T09:13:00.943Z,60.41
2022-10-09T09:14:01.056Z,61.04
2022-10-09T09:15:01.134Z,61.91
2022-10-09T09:16:01.392Z,61.23
2022-10-09T09:17:01.412Z,61.97
2022-10-09T09:18:01.557Z,62.10
2022-10-09T09:19:01.702Z,61.88
2022-10-09T09:20:01.762Z,61.51
2022-10-09T09:21:01.873Z,60.05
2022-10-09T09:22:01.971Z,60.82
2022-10-09T09:23:02.123Z,60.16
2022-10-09T09:24:02.260Z,59.72
2022-10-09T09:25:02.362Z,60.85
2022-10-09T09:26:02.463Z,60.03
2022-10-09T09:27:02.572Z,59.53
2022-10-09T09:28:02.733Z,59.33
2022-10-09T09:29:02.878Z,59.42
2022-10-09T09:30:02.935Z,59.35
2022-10-09T09:31:03.089Z,60.45
2022-10-09T09:32:03.173Z,61.55
2022-10-09T09:33:03.282Z,60.21
2022-10-09T09:34:03.403Z,59.45
2022-10-09T09:35:03.511Z,59.15
2022-10-09T09:36:03.629Z,61.80
2022-10-09T09:37:03.751Z,61.18
2022-10-09T09:38:03.871Z,61.45
2022-10-09T09:41:05.242Z,60.62
2022-10-09T09:42:04.371Z,60.06
2022-10-09T09:43:05.155Z,58.37
2022-10-09T09:44:04.659Z,58.59
2022-10-09T09:45:04.823Z,58.28
2022-10-09T09:46:04.988Z,59.14
2022-10-09T09:47:05.010Z,59.68
2022-10-09T09:48:05.218Z,59.42
2022-10-09T09:49:09.348Z,58.71
2022-10-09T09:50:05.403Z,58.53
2022-10-09T09:51:26.747Z,58.00
2022-10-09T09:52:06.672Z,58.81
2022-10-09T09:53:05.873Z,58.55
2022-10-09T09:54:05.930Z,59.46
2022-10-09T09:55:06.030Z,58.42
2022-10-09T09:56:06.145Z,57.84
2022-10-09T09:57:18.218Z,57.24
2022-10-09T09:58:07.430Z,57.81
2022-10-09T09:59:06.490Z,59.20
2022-10-09T10:00:06.597Z,59.29
2022-10-09T10:01:06.861Z,59.87
2022-10-09T10:02:06.923Z,59.32
2022-10-09T10:03:06.959Z,57.63
2022-10-09T10:04:07.129Z,58.52
2022-10-09T10:05:07.180Z,58.41
2022-10-09T10:06:07.289Z,57.66
2022-10-09T10:07:07.415Z,57.74
2022-10-09T10:08:07.529Z,58.43
2022-10-09T10:09:07.691Z,58.99
2022-10-09T10:10:07.730Z,59.06
2022-10-09T10:11:07.887Z,58.75
2022-10-09T10:12:07.990Z,58.15
2022-10-09T10:13:08.139Z,58.36
2022-10-09T10:14:08.448Z,56.99
2022-10-09T10:15:08.321Z,56.90
2022-10-09T10:16:08.501Z,57.49
2022-10-09T10:17:08.537Z,55.57
2022-10-09T10:18:08.649Z,57.15
2022-10-09T10:19:08.847Z,55.89
2022-10-09T10:20:08.898Z,55.30
2022-10-09T10:21:08.988Z,53.83
2022-10-09T10:22:09.098Z,53.29
2022-10-09T10:23:09.257Z,55.23
2022-10-09T10:24:09.442Z,54.69
2022-10-09T10:25:11.507Z,55.44
2022-10-09T10:26:09.569Z,54.85
2022-10-09T10:27:09.738Z,54.69
2022-10-09T10:28:09.901Z,54.53
2022-10-09T10:29:10.009Z,55.53
2022-10-09T10:30:10.103Z,54.86
2022-10-09T10:31:10.312Z,53.50
2022-10-09T10:32:14.176Z,53.57
2022-10-09T10:33:10.527Z,52.64
2022-10-09T10:34:10.727Z,51.45
2022-10-09T10:35:10.784Z,51.90
2022-10-09T10:36:10.981Z,51.99
2022-10-09T10:37:11.004Z,53.59
2022-10-09T10:38:11.157Z,53.04
2022-10-09T10:39:11.407Z,55.57
2022-10-09T10:40:11.395Z,53.08
2022-10-09T10:41:11.555Z,51.21
2022-10-09T10:42:11.676Z,51.04
2022-10-09T10:43:11.799Z,50.17
2022-10-09T10:44:12.016Z,50.61
2022-10-09T10:45:11.995Z,50.04
2022-10-09T10:46:12.180Z,50.61
2022-10-09T10:47:12.225Z,49.98
2022-10-09T10:48:12.328Z,49.87
2022-10-09T10:49:12.493Z,50.21
2022-10-09T10:50:12.534Z,49.28
2022-10-09T10:51:12.655Z,49.84
2022-10-09T10:52:12.745Z,48.89
2022-10-09T10:53:12.848Z,49.81
2022-10-09T10:54:13.083Z,51.03
2022-10-09T10:55:13.113Z,49.29
2022-10-09T10:56:13.226Z,49.42
2022-10-09T10:57:13.304Z,49.65
2022-10-09T10:58:13.500Z,48.58
2022-10-09T10:59:13.686Z,48.44
2022-10-09T11:00:13.715Z,48.62
2022-10-09T11:01:13.920Z,51.47
2022-10-09T11:02:13.943Z,51.29
2022-10-09T11:03:14.154Z,51.10
2022-10-09T11:04:14.352Z,50.35
2022-10-09T11:05:14.326Z,48.25
2022-10-09T11:06:14.484Z,48.80
2022-10-09T11:07:14.582Z,49.11
2022-10-09T11:08:14.754Z,48.29
2022-10-09T11:09:14.903Z,48.70
2022-10-09T11:10:15.072Z,48.82
2022-10-09T11:11:15.094Z,50.28
2022-10-09T11:12:24.610Z,50.86
2022-10-09T11:13:16.351Z,48.43
2022-10-09T11:14:19.954Z,48.75
2022-10-09T11:15:15.635Z,49.79
2022-10-09T11:16:15.796Z,50.10
2022-10-09T11:17:15.834Z,48.25
2022-10-09T11:18:15.953Z,48.55
2022-10-09T11:19:16.111Z,49.92
2022-10-09T11:20:16.307Z,49.64
2022-10-09T11:21:16.302Z,51.61
2022-10-09T11:22:16.410Z,53.33
2022-10-09T11:23:16.534Z,53.79
2022-10-09T11:24:16.761Z,54.28
2022-10-09T11:25:16.760Z,55.27
2022-10-09T11:26:16.900Z,55.36
2022-10-09T11:27:17.011Z,55.24
2022-10-09T11:28:17.230Z,54.47
2022-10-09T11:29:17.371Z,54.40
2022-10-09T11:30:17.428Z,54.88
2022-10-09T11:31:17.564Z,54.33
2022-10-09T11:32:17.699Z,53.96
2022-10-09T11:33:17.832Z,54.44
2022-10-09T11:34:18.079Z,54.47
2022-10-09T11:35:18.093Z,54.54
2022-10-09T11:36:18.190Z,54.64
2022-10-09T11:37:18.319Z,53.99
2022-10-09T11:38:18.519Z,54.26
2022-10-09T11:39:18.787Z,54.08
2022-10-09T11:40:18.738Z,54.50
2022-10-09T11:41:18.840Z,54.55
2022-10-09T11:42:18.968Z,54.51
2022-10-09T11:43:19.147Z,54.34
2022-10-09T11:44:19.217Z,54.30
2022-10-09T11:45:19.329Z,53.73
2022-10-09T11:46:19.478Z,51.79
2022-10-09T11:47:19.556Z,52.24
2022-10-09T11:48:19.668Z,52.03
2022-10-09T11:49:19.807Z,51.79
2022-10-09T11:50:19.936Z,52.02
2022-10-09T11:51:20.036Z,52.51
2022-10-09T11:52:20.144Z,53.70
2022-10-09T11:53:20.266Z,53.27
2022-10-09T11:54:20.395Z,53.29
2022-10-09T11:55:20.496Z,52.68
2022-10-09T11:56:20.627Z,53.26
2022-10-09T11:57:20.734Z,52.40
2022-10-09T11:58:20.905Z,51.22
2022-10-09T11:59:21.093Z,51.93
2022-10-09T12:00:21.146Z,50.86
2022-10-09T12:01:21.307Z,52.23
2022-10-09T12:02:21.434Z,51.62
2022-10-09T12:03:21.472Z,52.03
2022-10-09T12:04:37.417Z,51.17
2022-10-09T12:05:22.686Z,51.11
2022-10-09T12:06:21.835Z,51.76
2022-10-09T12:07:21.965Z,51.50
2022-10-09T12:08:22.075Z,50.39
2022-10-09T12:09:22.205Z,50.82
2022-10-09T12:10:22.344Z,51.26
2022-10-09T12:11:22.455Z,51.99
2022-10-09T12:12:22.542Z,50.78
2022-10-09T12:13:22.665Z,51.21
2022-10-09T12:14:22.835Z,52.58
2022-10-09T12:15:22.894Z,51.31
2022-10-09T12:16:23.056Z,51.18
2022-10-09T12:17:23.166Z,51.75
2022-10-09T12:18:23.285Z,51.12
2022-10-09T12:19:23.444Z,50.02
2022-10-09T12:20:23.543Z,50.53
2022-10-09T12:21:23.643Z,50.40
2022-10-09T12:22:23.744Z,50.39
2022-10-09T12:23:27.948Z,50.15
2022-10-09T12:24:24.014Z,50.40
2022-10-09T12:25:24.123Z,50.47
2022-10-09T12:26:24.231Z,50.03
2022-10-09T12:27:24.325Z,50.62
2022-10-09T12:28:24.570Z,50.27
2022-10-09T12:29:24.634Z,50.26
2022-10-09T12:30:24.733Z,49.49
2022-10-09T12:31:24.890Z,49.49
2022-10-09T12:32:24.964Z,49.93
2022-10-09T12:33:25.123Z,49.39
2022-10-09T12:34:25.351Z,49.35
2022-10-09T12:35:25.372Z,48.03
2022-10-09T12:36:25.480Z,48.55
2022-10-09T12:37:25.575Z,47.84
2022-10-09T12:38:25.691Z,47.91
2022-10-09T12:39:25.847Z,48.15
2022-10-09T12:40:25.930Z,49.02
2022-10-09T12:41:26.071Z,47.48
2022-10-09T12:42:26.291Z,48.49
2022-10-09T12:43:26.321Z,48.61
2022-10-09T12:44:26.540Z,48.36
2022-10-09T12:45:26.571Z,48.13
2022-10-09T12:46:26.766Z,46.35
2022-10-09T12:47:26.831Z,46.89
2022-10-09T12:48:26.920Z,46.76
2022-10-09T12:49:27.078Z,47.17
2022-10-09T12:50:27.147Z,48.55
2022-10-09T12:51:27.271Z,44.97
2022-10-09T12:52:27.382Z,45.73
2022-10-09T12:53:27.568Z,45.81
2022-10-09T12:54:27.797Z,45.99
2022-10-09T12:55:27.783Z,46.70
2022-10-09T12:56:27.875Z,46.75